sensor_id;sensor_type;location;lat;lon;timestamp;temperature;humidity
49413;DHT22;35493;50.276;9.372;2023-09-12T00:02:13;19.60;82.70
49413;DHT22;35493;50.276;9.372;2023-09-12T00:04:46;19.50;82.80
49413;DHT22;35493;50.276;9.372;2023-09-12T00:07:22;19.50;82.80
49413;DHT22;35493;50.276;9.372;2023-09-12T00:09:55;19.50;82.80
49413;DHT22;35493;50.276;9.372;2023-09-12T00:12:28;19.40;82.80
49413;DHT22;35493;50.276;9.372;2023-09-12T00:14:56;19.40;82.80
49413;DHT22;35493;50.276;9.372;2023-09-12T00:17:29;19.40;82.80
49413;DHT22;35493;50.276;9.372;2023-09-12T00:20:02;19.40;82.70
49413;DHT22;35493;50.276;9.372;2023-09-12T00:22:38;19.40;82.80
49413;DHT22;35493;50.276;9.372;2023-09-12T00:25:11;19.30;82.90
49413;DHT22;35493;50.276;9.372;2023-09-12T00:27:44;19.30;82.90
49413;DHT22;35493;50.276;9.372;2023-09-12T00:30:18;19.30;82.90
49413;DHT22;35493;50.276;9.372;2023-09-12T00:32:51;19.20;82.90
49413;DHT22;35493;50.276;9.372;2023-09-12T00:35:24;19.20;82.80
49413;DHT22;35493;50.276;9.372;2023-09-12T00:37:57;19.20;82.90
49413;DHT22;35493;50.276;9.372;2023-09-12T00:40:30;19.10;82.90
49413;DHT22;35493;50.276;9.372;2023-09-12T00:43:03;19.10;83.00
49413;DHT22;35493;50.276;9.372;2023-09-12T00:45:44;19.10;83.10
49413;DHT22;35493;50.276;9.372;2023-09-12T00:48:17;19.10;83.00
49413;DHT22;35493;50.276;9.372;2023-09-12T00:50:51;19.20;82.80
49413;DHT22;35493;50.276;9.372;2023-09-12T00:53:25;19.10;82.80
49413;DHT22;35493;50.276;9.372;2023-09-12T00:55:58;19.20;82.80
49413;DHT22;35493;50.276;9.372;2023-09-12T00:58:32;19.10;82.90
49413;DHT22;35493;50.276;9.372;2023-09-12T01:01:07;19.10;83.00
49413;DHT22;35493;50.276;9.372;2023-09-12T01:03:41;19.10;83.10
49413;DHT22;35493;50.276;9.372;2023-09-12T01:06:15;19.10;83.00
49413;DHT22;35493;50.276;9.372;2023-09-12T01:08:52;19.00;83.20
49413;DHT22;35493;50.276;9.372;2023-09-12T01:11:26;19.00;83.20
49413;DHT22;35493;50.276;9.372;2023-09-12T01:14:00;19.00;83.10
49413;DHT22;35493;50.276;9.372;2023-09-12T01:16:34;19.00;83.30
49413;DHT22;35493;50.276;9.372;2023-09-12T01:19:08;19.00;83.30
49413;DHT22;35493;50.276;9.372;2023-09-12T01:24:51;18.90;83.30
49413;DHT22;35493;50.276;9.372;2023-09-12T01:27:27;18.90;83.20
49413;DHT22;35493;50.276;9.372;2023-09-12T01:30:02;18.90;83.20
49413;DHT22;35493;50.276;9.372;2023-09-12T01:32:36;18.90;83.20
49413;DHT22;35493;50.276;9.372;2023-09-12T01:35:10;18.80;83.20
49413;DHT22;35493;50.276;9.372;2023-09-12T01:37:43;18.80;83.20
49413;DHT22;35493;50.276;9.372;2023-09-12T01:40:16;18.70;83.20
49413;DHT22;35493;50.276;9.372;2023-09-12T01:42:52;18.70;83.30
49413;DHT22;35493;50.276;9.372;2023-09-12T01:45:25;18.70;83.20
49413;DHT22;35493;50.276;9.372;2023-09-12T01:47:59;18.70;83.20
49413;DHT22;35493;50.276;9.372;2023-09-12T01:50:33;18.70;83.20
49413;DHT22;35493;50.276;9.372;2023-09-12T01:53:07;18.70;83.20
49413;DHT22;35493;50.276;9.372;2023-09-12T01:55:40;18.70;83.20
49413;DHT22;35493;50.276;9.372;2023-09-12T01:58:16;18.60;83.20
49413;DHT22;35493;50.276;9.372;2023-09-12T02:00:42;18.70;83.20
49413;DHT22;35493;50.276;9.372;2023-09-12T02:03:15;18.60;83.20
49413;DHT22;35493;50.276;9.372;2023-09-12T02:05:48;18.60;83.20
49413;DHT22;35493;50.276;9.372;2023-09-12T02:08:21;18.60;83.10
49413;DHT22;35493;50.276;9.372;2023-09-12T02:10:54;18.60;83.20
49413;DHT22;35493;50.276;9.372;2023-09-12T02:13:28;18.60;83.00
49413;DHT22;35493;50.276;9.372;2023-09-12T02:16:02;18.60;83.00
49413;DHT22;35493;50.276;9.372;2023-09-12T02:18:35;18.60;82.80
49413;DHT22;35493;50.276;9.372;2023-09-12T02:21:02;18.50;83.00
49413;DHT22;35493;50.276;9.372;2023-09-12T02:23:35;18.50;83.00
49413;DHT22;35493;50.276;9.372;2023-09-12T02:26:08;18.50;83.20
49413;DHT22;35493;50.276;9.372;2023-09-12T02:28:42;18.50;83.30
49413;DHT22;35493;50.276;9.372;2023-09-12T02:31:16;18.50;83.30
49413;DHT22;35493;50.276;9.372;2023-09-12T02:33:43;18.50;83.40
49413;DHT22;35493;50.276;9.372;2023-09-12T02:36:16;18.50;83.50
49413;DHT22;35493;50.276;9.372;2023-09-12T02:38:49;18.50;83.40
49413;DHT22;35493;50.276;9.372;2023-09-12T02:41:16;18.50;83.50
49413;DHT22;35493;50.276;9.372;2023-09-12T02:43:50;18.50;83.50
49413;DHT22;35493;50.276;9.372;2023-09-12T02:46:23;18.50;83.40
49413;DHT22;35493;50.276;9.372;2023-09-12T02:48:56;18.40;83.40
49413;DHT22;35493;50.276;9.372;2023-09-12T02:51:29;18.40;83.40
49413;DHT22;35493;50.276;9.372;2023-09-12T02:54:02;18.40;83.30
49413;DHT22;35493;50.276;9.372;2023-09-12T02:56:35;18.30;83.30
49413;DHT22;35493;50.276;9.372;2023-09-12T02:59:09;18.30;83.40
49413;DHT22;35493;50.276;9.372;2023-09-12T03:01:42;18.30;83.30
49413;DHT22;35493;50.276;9.372;2023-09-12T03:04:15;18.30;83.30
49413;DHT22;35493;50.276;9.372;2023-09-12T03:06:48;18.30;83.20
49413;DHT22;35493;50.276;9.372;2023-09-12T03:09:22;18.30;83.00
49413;DHT22;35493;50.276;9.372;2023-09-12T03:11:56;18.30;83.00
49413;DHT22;35493;50.276;9.372;2023-09-12T03:14:30;18.30;83.10
49413;DHT22;35493;50.276;9.372;2023-09-12T03:17:05;18.20;83.20
49413;DHT22;35493;50.276;9.372;2023-09-12T03:19:38;18.30;83.00
49413;DHT22;35493;50.276;9.372;2023-09-12T03:22:11;18.30;82.90
49413;DHT22;35493;50.276;9.372;2023-09-12T03:24:38;18.30;83.10
49413;DHT22;35493;50.276;9.372;2023-09-12T03:27:11;18.30;83.00
49413;DHT22;35493;50.276;9.372;2023-09-12T03:29:47;18.20;83.20
49413;DHT22;35493;50.276;9.372;2023-09-12T03:32:20;18.20;83.30
49413;DHT22;35493;50.276;9.372;2023-09-12T03:34:53;18.20;83.30
49413;DHT22;35493;50.276;9.372;2023-09-12T03:37:26;18.20;83.50
49413;DHT22;35493;50.276;9.372;2023-09-12T03:40:00;18.20;83.60
49413;DHT22;35493;50.276;9.372;2023-09-12T03:42:36;18.10;83.60
49413;DHT22;35493;50.276;9.372;2023-09-12T03:45:11;18.10;83.70
49413;DHT22;35493;50.276;9.372;2023-09-12T03:47:44;18.20;83.60
49413;DHT22;35493;50.276;9.372;2023-09-12T03:50:18;18.10;83.60
49413;DHT22;35493;50.276;9.372;2023-09-12T03:52:51;18.10;83.80
49413;DHT22;35493;50.276;9.372;2023-09-12T03:55:24;18.10;83.80
49413;DHT22;35493;50.276;9.372;2023-09-12T03:57:57;18.10;83.70
49413;DHT22;35493;50.276;9.372;2023-09-12T04:00:31;18.10;83.70
49413;DHT22;35493;50.276;9.372;2023-09-12T04:03:12;18.10;83.60
49413;DHT22;35493;50.276;9.372;2023-09-12T04:05:45;18.10;83.70
49413;DHT22;35493;50.276;9.372;2023-09-12T04:08:12;18.10;83.70
49413;DHT22;35493;50.276;9.372;2023-09-12T04:10:45;18.10;83.80
49413;DHT22;35493;50.276;9.372;2023-09-12T04:13:12;18.10;83.60
49413;DHT22;35493;50.276;9.372;2023-09-12T04:15:46;18.10;83.40
49413;DHT22;35493;50.276;9.372;2023-09-12T04:18:20;18.10;83.40
49413;DHT22;35493;50.276;9.372;2023-09-12T04:20:53;18.10;83.30
49413;DHT22;35493;50.276;9.372;2023-09-12T04:23:27;18.10;83.40
49413;DHT22;35493;50.276;9.372;2023-09-12T04:26:01;18.10;83.50
49413;DHT22;35493;50.276;9.372;2023-09-12T04:28:36;18.00;83.60
49413;DHT22;35493;50.276;9.372;2023-09-12T04:31:11;18.00;83.60
49413;DHT22;35493;50.276;9.372;2023-09-12T04:33:45;17.90;83.70
49413;DHT22;35493;50.276;9.372;2023-09-12T04:36:18;17.90;83.60
49413;DHT22;35493;50.276;9.372;2023-09-12T04:38:52;17.90;83.70
49413;DHT22;35493;50.276;9.372;2023-09-12T04:41:25;17.90;83.80
49413;DHT22;35493;50.276;9.372;2023-09-12T04:43:58;18.00;83.80
49413;DHT22;35493;50.276;9.372;2023-09-12T04:46:35;17.90;84.00
49413;DHT22;35493;50.276;9.372;2023-09-12T04:49:08;17.90;84.00
49413;DHT22;35493;50.276;9.372;2023-09-12T04:51:41;18.00;84.00
49413;DHT22;35493;50.276;9.372;2023-09-12T04:54:15;18.00;83.90
49413;DHT22;35493;50.276;9.372;2023-09-12T04:56:49;18.00;83.90
49413;DHT22;35493;50.276;9.372;2023-09-12T04:59:22;18.00;83.90
49413;DHT22;35493;50.276;9.372;2023-09-12T05:01:50;17.90;84.00
49413;DHT22;35493;50.276;9.372;2023-09-12T05:04:24;18.00;84.00
49413;DHT22;35493;50.276;9.372;2023-09-12T05:06:57;18.00;84.00
49413;DHT22;35493;50.276;9.372;2023-09-12T05:09:30;18.00;84.00
49413;DHT22;35493;50.276;9.372;2023-09-12T05:12:03;18.10;83.90
49413;DHT22;35493;50.276;9.372;2023-09-12T05:14:37;18.10;83.80
49413;DHT22;35493;50.276;9.372;2023-09-12T05:17:12;18.10;84.00
49413;DHT22;35493;50.276;9.372;2023-09-12T05:19:45;18.10;84.10
49413;DHT22;35493;50.276;9.372;2023-09-12T05:22:18;18.10;84.20
49413;DHT22;35493;50.276;9.372;2023-09-12T05:24:51;18.10;84.20
49413;DHT22;35493;50.276;9.372;2023-09-12T05:27:24;18.10;84.10
49413;DHT22;35493;50.276;9.372;2023-09-12T05:29:57;18.20;83.90
49413;DHT22;35493;50.276;9.372;2023-09-12T05:32:32;18.20;83.70
49413;DHT22;35493;50.276;9.372;2023-09-12T05:35:05;18.20;84.00
49413;DHT22;35493;50.276;9.372;2023-09-12T05:37:39;18.20;84.20
49413;DHT22;35493;50.276;9.372;2023-09-12T05:40:12;18.20;84.00
49413;DHT22;35493;50.276;9.372;2023-09-12T05:42:45;18.20;83.90
49413;DHT22;35493;50.276;9.372;2023-09-12T05:45:18;18.30;84.00
49413;DHT22;35493;50.276;9.372;2023-09-12T05:47:46;18.30;84.10
49413;DHT22;35493;50.276;9.372;2023-09-12T05:50:19;18.30;84.10
49413;DHT22;35493;50.276;9.372;2023-09-12T05:52:52;18.40;84.20
49413;DHT22;35493;50.276;9.372;2023-09-12T05:55:25;18.40;84.10
49413;DHT22;35493;50.276;9.372;2023-09-12T05:57:58;18.40;84.10
49413;DHT22;35493;50.276;9.372;2023-09-12T06:00:33;18.50;84.10
49413;DHT22;35493;50.276;9.372;2023-09-12T06:03:08;18.50;84.00
49413;DHT22;35493;50.276;9.372;2023-09-12T06:05:41;18.50;84.00
49413;DHT22;35493;50.276;9.372;2023-09-12T06:08:14;18.50;83.90
49413;DHT22;35493;50.276;9.372;2023-09-12T06:10:47;18.50;83.90
49413;DHT22;35493;50.276;9.372;2023-09-12T06:13:20;18.40;84.10
49413;DHT22;35493;50.276;9.372;2023-09-12T06:15:53;18.50;84.00
49413;DHT22;35493;50.276;9.372;2023-09-12T06:18:28;18.60;84.00
49413;DHT22;35493;50.276;9.372;2023-09-12T06:21:02;18.60;83.80
49413;DHT22;35493;50.276;9.372;2023-09-12T06:23:38;18.60;83.90
49413;DHT22;35493;50.276;9.372;2023-09-12T06:26:11;18.50;84.00
49413;DHT22;35493;50.276;9.372;2023-09-12T06:28:44;18.60;84.30
49413;DHT22;35493;50.276;9.372;2023-09-12T06:31:16;18.60;84.40
49413;DHT22;35493;50.276;9.372;2023-09-12T06:33:51;18.60;84.00
49413;DHT22;35493;50.276;9.372;2023-09-12T06:36:17;18.70;84.20
49413;DHT22;35493;50.276;9.372;2023-09-12T06:38:50;18.70;84.20
49413;DHT22;35493;50.276;9.372;2023-09-12T06:41:23;18.80;83.20
49413;DHT22;35493;50.276;9.372;2023-09-12T06:43:56;18.90;83.80
49413;DHT22;35493;50.276;9.372;2023-09-12T06:46:30;18.90;83.80
49413;DHT22;35493;50.276;9.372;2023-09-12T06:49:09;18.90;83.40
49413;DHT22;35493;50.276;9.372;2023-09-12T06:51:42;18.90;83.50
49413;DHT22;35493;50.276;9.372;2023-09-12T06:54:15;19.00;83.60
49413;DHT22;35493;50.276;9.372;2023-09-12T06:56:48;19.00;83.50
49413;DHT22;35493;50.276;9.372;2023-09-12T06:59:21;19.10;83.90
49413;DHT22;35493;50.276;9.372;2023-09-12T07:01:48;19.20;83.30
49413;DHT22;35493;50.276;9.372;2023-09-12T07:04:23;19.20;83.10
49413;DHT22;35493;50.276;9.372;2023-09-12T07:06:56;19.20;83.90
49413;DHT22;35493;50.276;9.372;2023-09-12T07:09:29;19.30;83.90
49413;DHT22;35493;50.276;9.372;2023-09-12T07:12:02;19.40;83.70
49413;DHT22;35493;50.276;9.372;2023-09-12T07:14:37;19.50;83.60
49413;DHT22;35493;50.276;9.372;2023-09-12T07:17:10;19.60;83.60
49413;DHT22;35493;50.276;9.372;2023-09-12T07:19:45;19.60;83.30
49413;DHT22;35493;50.276;9.372;2023-09-12T07:22:18;19.70;83.20
49413;DHT22;35493;50.276;9.372;2023-09-12T07:24:51;19.60;82.90
49413;DHT22;35493;50.276;9.372;2023-09-12T07:27:24;19.70;83.30
49413;DHT22;35493;50.276;9.372;2023-09-12T07:29:57;19.80;83.20
49413;DHT22;35493;50.276;9.372;2023-09-12T07:32:30;19.80;83.30
49413;DHT22;35493;50.276;9.372;2023-09-12T07:35:05;19.80;83.00
49413;DHT22;35493;50.276;9.372;2023-09-12T07:41:14;19.80;83.40
49413;DHT22;35493;50.276;9.372;2023-09-12T07:43:47;20.00;82.90
49413;DHT22;35493;50.276;9.372;2023-09-12T07:46:14;20.10;83.30
49413;DHT22;35493;50.276;9.372;2023-09-12T07:48:47;20.30;82.90
49413;DHT22;35493;50.276;9.372;2023-09-12T07:51:22;20.40;83.00
49413;DHT22;35493;50.276;9.372;2023-09-12T07:53:56;20.50;83.10
49413;DHT22;35493;50.276;9.372;2023-09-12T07:56:29;20.60;83.20
49413;DHT22;35493;50.276;9.372;2023-09-12T07:59:02;20.60;82.50
49413;DHT22;35493;50.276;9.372;2023-09-12T08:01:35;20.60;82.50
49413;DHT22;35493;50.276;9.372;2023-09-12T08:04:02;20.70;82.70
49413;DHT22;35493;50.276;9.372;2023-09-12T08:06:37;20.80;82.60
49413;DHT22;35493;50.276;9.372;2023-09-12T08:09:09;20.80;82.40
49413;DHT22;35493;50.276;9.372;2023-09-12T08:11:42;20.90;82.30
49413;DHT22;35493;50.276;9.372;2023-09-12T08:14:15;21.10;82.30
49413;DHT22;35493;50.276;9.372;2023-09-12T08:16:48;21.10;82.10
49413;DHT22;35493;50.276;9.372;2023-09-12T08:19:21;21.10;82.10
49413;DHT22;35493;50.276;9.372;2023-09-12T08:21:56;21.20;82.10
49413;DHT22;35493;50.276;9.372;2023-09-12T08:24:29;21.20;81.80
49413;DHT22;35493;50.276;9.372;2023-09-12T08:27:03;21.30;81.70
49413;DHT22;35493;50.276;9.372;2023-09-12T08:29:36;21.30;82.10
49413;DHT22;35493;50.276;9.372;2023-09-12T08:32:10;21.40;82.80
49413;DHT22;35493;50.276;9.372;2023-09-12T08:34:43;21.60;82.40
49413;DHT22;35493;50.276;9.372;2023-09-12T08:37:18;21.80;82.60
49413;DHT22;35493;50.276;9.372;2023-09-12T08:39:51;22.00;82.10
49413;DHT22;35493;50.276;9.372;2023-09-12T08:42:28;22.20;80.70
49413;DHT22;35493;50.276;9.372;2023-09-12T08:45:01;22.40;79.40
49413;DHT22;35493;50.276;9.372;2023-09-12T08:47:35;22.60;79.10
49413;DHT22;35493;50.276;9.372;2023-09-12T08:50:02;22.80;79.20
49413;DHT22;35493;50.276;9.372;2023-09-12T08:52:37;22.90;78.70
49413;DHT22;35493;50.276;9.372;2023-09-12T08:55:11;23.00;78.70
49413;DHT22;35493;50.276;9.372;2023-09-12T08:57:45;23.10;78.20
49413;DHT22;35493;50.276;9.372;2023-09-12T09:00:19;23.20;77.70
49413;DHT22;35493;50.276;9.372;2023-09-12T09:02:54;23.40;77.50
49413;DHT22;35493;50.276;9.372;2023-09-12T09:05:22;23.60;77.10
49413;DHT22;35493;50.276;9.372;2023-09-12T09:07:57;23.60;76.50
49413;DHT22;35493;50.276;9.372;2023-09-12T09:10:30;23.70;76.20
49413;DHT22;35493;50.276;9.372;2023-09-12T09:13:04;23.90;75.60
49413;DHT22;35493;50.276;9.372;2023-09-12T09:15:39;24.00;75.00
49413;DHT22;35493;50.276;9.372;2023-09-12T09:18:18;24.10;74.30
49413;DHT22;35493;50.276;9.372;2023-09-12T09:20:51;24.30;73.90
49413;DHT22;35493;50.276;9.372;2023-09-12T09:23:26;24.50;73.40
49413;DHT22;35493;50.276;9.372;2023-09-12T09:25:59;24.50;73.40
49413;DHT22;35493;50.276;9.372;2023-09-12T09:28:32;24.60;73.30
49413;DHT22;35493;50.276;9.372;2023-09-12T09:31:08;24.60;73.20
49413;DHT22;35493;50.276;9.372;2023-09-12T09:33:42;24.70;72.70
49413;DHT22;35493;50.276;9.372;2023-09-12T09:36:20;24.80;72.50
49413;DHT22;35493;50.276;9.372;2023-09-12T09:38:55;24.80;72.20
49413;DHT22;35493;50.276;9.372;2023-09-12T09:41:31;24.90;71.80
49413;DHT22;35493;50.276;9.372;2023-09-12T09:44:06;25.00;72.10
49413;DHT22;35493;50.276;9.372;2023-09-12T09:46:40;25.10;71.80
49413;DHT22;35493;50.276;9.372;2023-09-12T09:49:15;25.20;71.40
49413;DHT22;35493;50.276;9.372;2023-09-12T09:51:49;25.20;71.20
49413;DHT22;35493;50.276;9.372;2023-09-12T09:54:25;25.30;71.00
49413;DHT22;35493;50.276;9.372;2023-09-12T09:56:59;25.30;70.70
49413;DHT22;35493;50.276;9.372;2023-09-12T09:59:32;25.50;70.70
49413;DHT22;35493;50.276;9.372;2023-09-12T10:02:05;25.50;70.30
49413;DHT22;35493;50.276;9.372;2023-09-12T10:04:39;25.60;70.10
49413;DHT22;35493;50.276;9.372;2023-09-12T10:07:13;25.60;69.90
49413;DHT22;35493;50.276;9.372;2023-09-12T10:09:50;25.60;69.90
49413;DHT22;35493;50.276;9.372;2023-09-12T10:12:23;25.60;69.70
49413;DHT22;35493;50.276;9.372;2023-09-12T10:14:58;25.60;69.40
49413;DHT22;35493;50.276;9.372;2023-09-12T10:17:34;25.60;69.70
49413;DHT22;35493;50.276;9.372;2023-09-12T10:20:11;25.60;69.60
49413;DHT22;35493;50.276;9.372;2023-09-12T10:22:48;25.80;69.20
49413;DHT22;35493;50.276;9.372;2023-09-12T10:25:25;25.90;69.40
49413;DHT22;35493;50.276;9.372;2023-09-12T10:27:58;26.00;68.70
49413;DHT22;35493;50.276;9.372;2023-09-12T10:30:32;26.10;68.60
49413;DHT22;35493;50.276;9.372;2023-09-12T10:33:05;26.20;68.10
49413;DHT22;35493;50.276;9.372;2023-09-12T10:35:39;26.20;68.10
49413;DHT22;35493;50.276;9.372;2023-09-12T10:38:12;26.30;67.90
49413;DHT22;35493;50.276;9.372;2023-09-12T10:40:48;26.40;67.70
49413;DHT22;35493;50.276;9.372;2023-09-12T10:43:21;26.40;67.80
49413;DHT22;35493;50.276;9.372;2023-09-12T10:45:56;26.50;67.60
49413;DHT22;35493;50.276;9.372;2023-09-12T10:48:31;26.50;67.50
49413;DHT22;35493;50.276;9.372;2023-09-12T10:51:05;26.60;67.10
49413;DHT22;35493;50.276;9.372;2023-09-12T10:53:45;26.70;66.80
49413;DHT22;35493;50.276;9.372;2023-09-12T10:56:22;26.70;66.40
49413;DHT22;35493;50.276;9.372;2023-09-12T10:59:13;26.80;66.40
49413;DHT22;35493;50.276;9.372;2023-09-12T11:01:46;26.80;66.20
49413;DHT22;35493;50.276;9.372;2023-09-12T11:04:30;26.90;66.10
49413;DHT22;35493;50.276;9.372;2023-09-12T11:12:44;26.90;66.10
49413;DHT22;35493;50.276;9.372;2023-09-12T11:15:18;27.00;65.90
49413;DHT22;35493;50.276;9.372;2023-09-12T11:17:45;27.00;65.40
49413;DHT22;35493;50.276;9.372;2023-09-12T11:20:18;26.90;65.80
49413;DHT22;35493;50.276;9.372;2023-09-12T11:22:52;27.00;65.40
49413;DHT22;35493;50.276;9.372;2023-09-12T11:25:26;27.00;65.50
49413;DHT22;35493;50.276;9.372;2023-09-12T11:28:04;27.00;65.10
49413;DHT22;35493;50.276;9.372;2023-09-12T11:30:37;27.00;65.50
49413;DHT22;35493;50.276;9.372;2023-09-12T11:33:27;27.10;65.40
49413;DHT22;35493;50.276;9.372;2023-09-12T11:36:02;27.10;65.40
49413;DHT22;35493;50.276;9.372;2023-09-12T11:38:40;27.10;65.10
49413;DHT22;35493;50.276;9.372;2023-09-12T11:41:13;27.10;64.70
49413;DHT22;35493;50.276;9.372;2023-09-12T11:43:48;27.10;65.30
49413;DHT22;35493;50.276;9.372;2023-09-12T11:46:21;27.20;65.20
49413;DHT22;35493;50.276;9.372;2023-09-12T11:48:55;27.20;65.10
49413;DHT22;35493;50.276;9.372;2023-09-12T11:51:28;27.10;64.40
49413;DHT22;35493;50.276;9.372;2023-09-12T11:54:03;27.10;64.80
49413;DHT22;35493;50.276;9.372;2023-09-12T11:56:36;27.20;65.00
49413;DHT22;35493;50.276;9.372;2023-09-12T11:59:19;27.10;65.30
49413;DHT22;35493;50.276;9.372;2023-09-12T12:01:54;27.20;65.40
49413;DHT22;35493;50.276;9.372;2023-09-12T12:04:27;27.10;65.30
49413;DHT22;35493;50.276;9.372;2023-09-12T12:07:01;27.10;65.00
49413;DHT22;35493;50.276;9.372;2023-09-12T12:09:34;27.10;65.20
49413;DHT22;35493;50.276;9.372;2023-09-12T12:12:09;27.00;65.20
49413;DHT22;35493;50.276;9.372;2023-09-12T12:14:44;27.00;65.50
49413;DHT22;35493;50.276;9.372;2023-09-12T12:17:11;26.90;64.80
49413;DHT22;35493;50.276;9.372;2023-09-12T12:19:45;27.00;65.50
49413;DHT22;35493;50.276;9.372;2023-09-12T12:22:18;27.00;65.30
49413;DHT22;35493;50.276;9.372;2023-09-12T12:24:46;27.00;65.20
49413;DHT22;35493;50.276;9.372;2023-09-12T12:27:19;27.00;65.30
49413;DHT22;35493;50.276;9.372;2023-09-12T12:29:54;27.00;65.70
49413;DHT22;35493;50.276;9.372;2023-09-12T12:32:27;27.00;65.70
49413;DHT22;35493;50.276;9.372;2023-09-12T12:35:00;27.00;64.80
49413;DHT22;35493;50.276;9.372;2023-09-12T12:37:36;27.00;65.20
49413;DHT22;35493;50.276;9.372;2023-09-12T12:40:11;27.00;66.10
49413;DHT22;35493;50.276;9.372;2023-09-12T12:42:45;26.90;65.60
49413;DHT22;35493;50.276;9.372;2023-09-12T12:45:20;26.90;64.70
49413;DHT22;35493;50.276;9.372;2023-09-12T12:47:56;27.00;65.20
49413;DHT22;35493;50.276;9.372;2023-09-12T12:50:29;27.00;65.40
49413;DHT22;35493;50.276;9.372;2023-09-12T12:53:07;27.00;64.80
49413;DHT22;35493;50.276;9.372;2023-09-12T12:55:42;27.00;65.50
49413;DHT22;35493;50.276;9.372;2023-09-12T12:58:15;27.00;65.80
49413;DHT22;35493;50.276;9.372;2023-09-12T13:00:50;26.90;65.00
49413;DHT22;35493;50.276;9.372;2023-09-12T13:03:16;26.90;65.90
49413;DHT22;35493;50.276;9.372;2023-09-12T13:05:49;26.90;65.30
49413;DHT22;35493;50.276;9.372;2023-09-12T13:08:22;26.90;65.90
49413;DHT22;35493;50.276;9.372;2023-09-12T13:10:57;27.00;65.30
49413;DHT22;35493;50.276;9.372;2023-09-12T13:13:30;27.00;65.60
49413;DHT22;35493;50.276;9.372;2023-09-12T13:16:05;27.00;64.80
49413;DHT22;35493;50.276;9.372;2023-09-12T13:18:40;27.00;65.60
49413;DHT22;35493;50.276;9.372;2023-09-12T13:21:13;27.00;64.90
49413;DHT22;35493;50.276;9.372;2023-09-12T13:23:46;27.00;65.00
49413;DHT22;35493;50.276;9.372;2023-09-12T13:26:19;27.00;65.50
49413;DHT22;35493;50.276;9.372;2023-09-12T13:28:52;27.00;65.30
49413;DHT22;35493;50.276;9.372;2023-09-12T13:31:27;27.00;64.70
49413;DHT22;35493;50.276;9.372;2023-09-12T13:33:59;27.00;65.50
49413;DHT22;35493;50.276;9.372;2023-09-12T13:36:32;27.00;65.60
49413;DHT22;35493;50.276;9.372;2023-09-12T13:39:06;27.00;65.30
49413;DHT22;35493;50.276;9.372;2023-09-12T13:41:39;27.00;65.30
49413;DHT22;35493;50.276;9.372;2023-09-12T13:44:06;26.90;66.20
49413;DHT22;35493;50.276;9.372;2023-09-12T13:46:41;26.90;66.10
49413;DHT22;35493;50.276;9.372;2023-09-12T13:49:15;26.90;65.20
49413;DHT22;35493;50.276;9.372;2023-09-12T13:51:42;26.90;65.90
49413;DHT22;35493;50.276;9.372;2023-09-12T13:54:16;26.90;66.50
49413;DHT22;35493;50.276;9.372;2023-09-12T13:56:48;26.90;66.00
49413;DHT22;35493;50.276;9.372;2023-09-12T13:59:21;26.90;65.60
49413;DHT22;35493;50.276;9.372;2023-09-12T14:02:03;26.80;65.80
49413;DHT22;35493;50.276;9.372;2023-09-12T14:04:36;26.80;65.90
49413;DHT22;35493;50.276;9.372;2023-09-12T14:07:10;26.70;66.50
49413;DHT22;35493;50.276;9.372;2023-09-12T14:09:42;26.70;66.30
49413;DHT22;35493;50.276;9.372;2023-09-12T14:12:15;26.80;66.10
49413;DHT22;35493;50.276;9.372;2023-09-12T14:14:49;27.00;65.90
49413;DHT22;35493;50.276;9.372;2023-09-12T14:17:23;26.90;66.40
49413;DHT22;35493;50.276;9.372;2023-09-12T14:19:57;26.80;66.30
49413;DHT22;35493;50.276;9.372;2023-09-12T14:22:30;26.80;66.10
49413;DHT22;35493;50.276;9.372;2023-09-12T14:25:03;26.70;66.60
49413;DHT22;35493;50.276;9.372;2023-09-12T14:27:37;26.70;66.90
49413;DHT22;35493;50.276;9.372;2023-09-12T14:30:10;26.60;66.90
49413;DHT22;35493;50.276;9.372;2023-09-12T14:32:46;26.60;67.10
49413;DHT22;35493;50.276;9.372;2023-09-12T14:35:20;26.60;67.20
49413;DHT22;35493;50.276;9.372;2023-09-12T14:37:53;26.50;66.70
49413;DHT22;35493;50.276;9.372;2023-09-12T14:40:26;26.50;67.10
49413;DHT22;35493;50.276;9.372;2023-09-12T14:43:00;26.40;67.40
49413;DHT22;35493;50.276;9.372;2023-09-12T14:45:33;26.40;67.10
49413;DHT22;35493;50.276;9.372;2023-09-12T14:48:07;26.40;67.10
49413;DHT22;35493;50.276;9.372;2023-09-12T14:50:34;26.40;67.50
49413;DHT22;35493;50.276;9.372;2023-09-12T14:53:07;26.40;67.20
49413;DHT22;35493;50.276;9.372;2023-09-12T14:55:40;26.40;67.40
49413;DHT22;35493;50.276;9.372;2023-09-12T14:58:13;26.40;67.30
49413;DHT22;35493;50.276;9.372;2023-09-12T15:00:46;26.40;67.30
49413;DHT22;35493;50.276;9.372;2023-09-12T15:03:20;26.30;67.40
49413;DHT22;35493;50.276;9.372;2023-09-12T15:05:53;26.40;67.50
49413;DHT22;35493;50.276;9.372;2023-09-12T15:08:26;26.30;67.50
49413;DHT22;35493;50.276;9.372;2023-09-12T15:10:52;26.30;67.30
49413;DHT22;35493;50.276;9.372;2023-09-12T15:13:26;26.30;67.40
49413;DHT22;35493;50.276;9.372;2023-09-12T15:15:59;26.20;68.00
49413;DHT22;35493;50.276;9.372;2023-09-12T15:18:33;26.20;67.90
49413;DHT22;35493;50.276;9.372;2023-09-12T15:21:07;26.20;68.20
49413;DHT22;35493;50.276;9.372;2023-09-12T15:23:40;26.20;68.00
49413;DHT22;35493;50.276;9.372;2023-09-12T15:26:06;26.20;68.30
49413;DHT22;35493;50.276;9.372;2023-09-12T15:28:40;26.20;68.50
49413;DHT22;35493;50.276;9.372;2023-09-12T15:31:13;26.10;68.60
49413;DHT22;35493;50.276;9.372;2023-09-12T15:33:47;26.10;68.60
49413;DHT22;35493;50.276;9.372;2023-09-12T15:36:21;26.10;68.20
49413;DHT22;35493;50.276;9.372;2023-09-12T15:38:54;26.10;68.40
49413;DHT22;35493;50.276;9.372;2023-09-12T15:41:28;26.10;68.40
49413;DHT22;35493;50.276;9.372;2023-09-12T15:44:01;26.10;68.50
49413;DHT22;35493;50.276;9.372;2023-09-12T15:46:35;26.10;68.60
49413;DHT22;35493;50.276;9.372;2023-09-12T15:49:09;26.10;68.70
49413;DHT22;35493;50.276;9.372;2023-09-12T15:51:42;26.10;68.80
49413;DHT22;35493;50.276;9.372;2023-09-12T15:54:15;26.00;69.00
49413;DHT22;35493;50.276;9.372;2023-09-12T15:56:48;26.10;69.10
49413;DHT22;35493;50.276;9.372;2023-09-12T15:59:21;26.00;69.00
49413;DHT22;35493;50.276;9.372;2023-09-12T16:01:54;26.00;69.30
49413;DHT22;35493;50.276;9.372;2023-09-12T16:04:28;26.00;69.30
49413;DHT22;35493;50.276;9.372;2023-09-12T16:07:02;26.00;69.30
49413;DHT22;35493;50.276;9.372;2023-09-12T16:09:35;26.00;69.40
49413;DHT22;35493;50.276;9.372;2023-09-12T16:12:08;25.90;69.30
49413;DHT22;35493;50.276;9.372;2023-09-12T16:14:41;25.90;69.60
49413;DHT22;35493;50.276;9.372;2023-09-12T16:17:14;25.90;69.80
49413;DHT22;35493;50.276;9.372;2023-09-12T16:19:48;25.80;69.90
49413;DHT22;35493;50.276;9.372;2023-09-12T16:22:22;25.80;69.90